createdAt,value
2023-12-12T00:03:48.812Z,100
2023-12-12T00:08:49.196Z,100
2023-12-12T00:13:49.837Z,100
2023-12-12T00:18:48.960Z,100
2023-12-12T00:23:48.682Z,100
2023-12-12T00:28:48.915Z,100
2023-12-12T00:33:48.775Z,100
2023-12-12T00:38:48.988Z,100
2023-12-12T00:43:49.331Z,100
2023-12-12T00:48:48.966Z,100
2023-12-12T00:53:48.794Z,100
2023-12-12T00:58:48.831Z,100
2023-12-12T01:03:49.953Z,100
2023-12-12T01:08:48.720Z,100
2023-12-12T01:13:49.422Z,100
2023-12-12T01:18:48.974Z,100
2023-12-12T01:23:55.943Z,100
2023-12-12T01:28:48.706Z,100
2023-12-12T01:33:52.107Z,100
2023-12-12T01:38:49.093Z,100
2023-12-12T01:43:48.747Z,100
2023-12-12T01:48:48.968Z,100
2023-12-12T01:53:50.801Z,100
2023-12-12T01:58:50.735Z,100
2023-12-12T02:03:49.411Z,100
2023-12-12T02:08:49.310Z,100
2023-12-12T02:13:49.258Z,100
2023-12-12T02:18:49.136Z,100
2023-12-12T02:23:49.262Z,100
2023-12-12T02:28:49.074Z,100
2023-12-12T02:33:48.976Z,100
2023-12-12T02:38:48.793Z,100
2023-12-12T02:43:48.919Z,100
2023-12-12T02:48:48.780Z,100
2023-12-12T02:53:48.895Z,100
2023-12-12T02:58:48.761Z,100
2023-12-12T03:03:49.453Z,100
2023-12-12T03:08:48.789Z,100
2023-12-12T03:13:48.922Z,100
2023-12-12T03:18:48.872Z,100
2023-12-12T03:23:48.876Z,100
2023-12-12T03:28:49.087Z,100
2023-12-12T03:33:48.952Z,100
2023-12-12T03:38:49.276Z,100
2023-12-12T03:43:48.799Z,100
2023-12-12T03:48:51.954Z,100
2023-12-12T03:53:49.064Z,100
2023-12-12T03:58:48.819Z,100
2023-12-12T04:03:48.937Z,100
2023-12-12T04:08:48.972Z,100
2023-12-12T04:13:49.309Z,100
2023-12-12T04:18:50.099Z,100
2023-12-12T04:23:48.962Z,100
2023-12-12T04:28:48.878Z,100
2023-12-12T04:33:48.989Z,100
2023-12-12T04:38:48.901Z,100
2023-12-12T04:43:49.627Z,100
2023-12-12T04:48:49.225Z,100
2023-12-12T04:53:48.846Z,100
2023-12-12T04:58:48.987Z,100
2023-12-12T05:03:49.065Z,100
2023-12-12T05:08:49.285Z,100
2023-12-12T05:13:49.181Z,100
2023-12-12T05:18:49.109Z,100
2023-12-12T05:23:49.303Z,100
2023-12-12T05:28:48.919Z,100
2023-12-12T05:33:49.128Z,100
2023-12-12T05:38:51.010Z,100
2023-12-12T05:43:48.987Z,100
2023-12-12T05:48:49.140Z,100
2023-12-12T05:53:48.888Z,100
2023-12-12T05:58:52.729Z,100
2023-12-12T06:03:49.315Z,100
2023-12-12T06:08:49.647Z,100
2023-12-12T06:13:49.100Z,100
2023-12-12T06:18:49.740Z,100
2023-12-12T06:23:48.987Z,100
2023-12-12T06:28:49.308Z,100
2023-12-12T06:33:49.285Z,100
2023-12-12T06:38:49.253Z,100
2023-12-12T06:43:48.996Z,100
2023-12-12T06:48:49.042Z,100
2023-12-12T06:53:49.546Z,100
2023-12-12T06:58:49.343Z,100
2023-12-12T07:03:49.106Z,100
2023-12-12T07:08:51.005Z,100
2023-12-12T07:13:48.994Z,100
2023-12-12T07:18:48.985Z,100
2023-12-12T07:23:50.173Z,100
2023-12-12T07:28:50.772Z,100
2023-12-12T07:33:49.926Z,100
2023-12-12T07:38:49.089Z,100
2023-12-12T07:43:49.127Z,100
2023-12-12T07:48:49.026Z,100
2023-12-12T07:53:49.003Z,100
2023-12-12T07:58:49.021Z,100
2023-12-12T08:03:49.141Z,100
2023-12-12T08:08:49.186Z,100
2023-12-12T08:13:49.144Z,100
2023-12-12T08:18:49.086Z,100
2023-12-12T08:23:49.726Z,100
2023-12-12T08:28:49.007Z,100
2023-12-12T08:33:49.188Z,100
2023-12-12T08:38:51.929Z,100
2023-12-12T08:43:49.062Z,100
2023-12-12T08:48:49.157Z,100
2023-12-12T08:53:49.086Z,100
2023-12-12T08:58:50.308Z,100
2023-12-12T09:03:49.097Z,100
2023-12-12T09:08:49.324Z,100
2023-12-12T09:13:49.680Z,100
2023-12-12T09:18:49.048Z,100
2023-12-12T09:23:49.145Z,100
2023-12-12T09:28:49.182Z,100
2023-12-12T09:33:49.094Z,100
2023-12-12T09:38:50.460Z,100
2023-12-12T09:43:49.443Z,100
2023-12-12T09:48:49.383Z,100
2023-12-12T09:53:52.108Z,100
2023-12-12T09:58:50.529Z,100
2023-12-12T10:03:49.670Z,100
2023-12-12T10:08:49.136Z,100
2023-12-12T10:13:57.575Z,100
2023-12-12T10:18:50.633Z,100
2023-12-12T10:23:52.550Z,100
2023-12-12T10:28:50.047Z,100
2023-12-12T10:33:49.369Z,100
2023-12-12T10:38:49.581Z,100
2023-12-12T10:43:49.666Z,100
2023-12-12T10:48:54.436Z,100
2023-12-12T10:53:52.374Z,100
2023-12-12T10:58:49.806Z,100
2023-12-12T11:03:49.517Z,100
2023-12-12T11:08:49.136Z,100
2023-12-12T11:13:49.651Z,100
2023-12-12T11:18:50.791Z,100
2023-12-12T11:24:01.260Z,100
2023-12-12T11:28:49.727Z,100
2023-12-12T11:34:06.284Z,100
2023-12-12T11:38:51.289Z,100
2023-12-12T11:43:49.284Z,100
2023-12-12T11:48:49.295Z,100
2023-12-12T11:53:49.483Z,100
2023-12-12T11:58:50.235Z,100
2023-12-12T12:03:49.381Z,100
2023-12-12T12:08:52.297Z,100
2023-12-12T12:13:51.817Z,100
2023-12-12T12:18:49.568Z,100
2023-12-12T12:23:49.161Z,100
2023-12-12T12:28:49.397Z,100
2023-12-12T12:33:49.287Z,100
2023-12-12T12:38:49.282Z,100
2023-12-12T12:43:56.292Z,100
2023-12-12T12:48:49.242Z,100
2023-12-12T12:53:49.221Z,100
2023-12-12T12:58:49.300Z,100
2023-12-12T13:03:49.485Z,100
2023-12-12T13:08:49.241Z,100
2023-12-12T13:13:51.660Z,100
2023-12-12T13:18:49.285Z,96.0918
2023-12-12T13:23:49.246Z,82.13477
2023-12-12T13:28:51.932Z,76.36523
2023-12-12T13:33:49.321Z,74.22363
2023-12-12T13:38:49.286Z,75.89941
2023-12-12T13:43:49.464Z,83.83105
2023-12-12T13:48:49.263Z,90.22363
2023-12-12T13:53:51.556Z,93.69238
2023-12-12T13:58:54.764Z,96.08008
2023-12-12T14:03:49.320Z,98.7041
2023-12-12T14:08:49.295Z,99.2959
2023-12-12T14:13:49.307Z,99.98242
2023-12-12T14:18:49.287Z,100
2023-12-12T14:23:49.830Z,100
2023-12-12T14:28:50.959Z,100
2023-12-12T14:33:49.503Z,100
2023-12-12T14:38:49.658Z,100
2023-12-12T14:43:52.621Z,100
2023-12-12T14:48:49.458Z,100
2023-12-12T14:53:49.350Z,100
2023-12-12T14:58:50.481Z,100
2023-12-12T15:03:49.803Z,100
2023-12-12T15:08:49.330Z,100
2023-12-12T15:13:49.400Z,100
2023-12-12T15:18:49.537Z,100
2023-12-12T15:28:49.349Z,100
2023-12-12T15:33:49.317Z,100
2023-12-12T15:38:49.380Z,100
2023-12-12T15:43:49.469Z,100
2023-12-12T15:48:49.405Z,100
2023-12-12T15:53:51.292Z,100
2023-12-12T15:58:54.214Z,100
2023-12-12T16:03:52.073Z,100
2023-12-12T16:08:51.120Z,100
2023-12-12T16:13:49.599Z,100
2023-12-12T16:18:49.473Z,100
2023-12-12T16:23:49.310Z,100
2023-12-12T16:28:49.630Z,100
2023-12-12T16:33:49.424Z,100
2023-12-12T16:38:52.126Z,100
2023-12-12T16:43:49.333Z,100
2023-12-12T16:48:50.371Z,100
2023-12-12T16:53:49.461Z,100
2023-12-12T16:58:49.412Z,100
2023-12-12T17:03:49.532Z,100
2023-12-12T17:08:52.060Z,100
2023-12-12T17:13:51.353Z,100
2023-12-12T17:18:49.929Z,100
2023-12-12T17:23:50.870Z,100
2023-12-12T17:28:49.758Z,100
2023-12-12T17:33:49.455Z,100
2023-12-12T17:38:49.460Z,100
2023-12-12T17:43:49.922Z,100
2023-12-12T17:48:49.550Z,100
2023-12-12T17:53:49.403Z,100
2023-12-12T17:58:49.832Z,100
2023-12-12T18:03:50.707Z,100
2023-12-12T18:08:49.424Z,100
2023-12-12T18:13:49.566Z,100
2023-12-12T18:18:49.625Z,100
2023-12-12T18:23:49.508Z,100
2023-12-12T18:28:54.105Z,100
2023-12-12T18:33:49.463Z,100
2023-12-12T18:38:49.663Z,100
2023-12-12T18:43:49.517Z,100
2023-12-12T18:48:49.553Z,100
2023-12-12T18:53:50.311Z,100
2023-12-12T18:58:52.041Z,100
2023-12-12T19:03:49.537Z,100
2023-12-12T19:08:49.510Z,100
2023-12-12T19:13:49.483Z,100
2023-12-12T19:18:49.701Z,100
2023-12-12T19:23:49.667Z,100
2023-12-12T19:28:49.546Z,100
2023-12-12T19:33:49.583Z,100
2023-12-12T19:38:49.531Z,100
2023-12-12T19:43:49.719Z,100
2023-12-12T19:48:50.121Z,100
2023-12-12T19:53:49.525Z,100
2023-12-12T19:58:49.548Z,100
2023-12-12T20:03:49.607Z,100
2023-12-12T20:08:49.537Z,100
2023-12-12T20:13:50.618Z,100
2023-12-12T20:18:49.613Z,100
2023-12-12T20:23:50.527Z,100
2023-12-12T20:28:49.613Z,100
2023-12-12T20:33:49.863Z,100
2023-12-12T20:38:49.608Z,100
2023-12-12T20:43:51.695Z,100
2023-12-12T20:48:49.674Z,100
2023-12-12T20:53:49.540Z,100
2023-12-12T20:58:49.553Z,100
2023-12-12T21:03:51.579Z,100
2023-12-12T21:08:49.609Z,100
2023-12-12T21:13:49.605Z,100
2023-12-12T21:18:49.802Z,100
2023-12-12T21:23:49.536Z,100
2023-12-12T21:28:49.656Z,100
2023-12-12T21:33:49.728Z,100
2023-12-12T21:38:49.615Z,100
2023-12-12T21:43:49.651Z,100
2023-12-12T21:48:49.879Z,100
2023-12-12T21:53:49.574Z,100
2023-12-12T21:58:49.676Z,100
2023-12-12T22:03:49.692Z,100
2023-12-12T22:08:49.767Z,100
2023-12-12T22:13:50.813Z,100
2023-12-12T22:18:50.178Z,100
2023-12-12T22:23:49.628Z,100
2023-12-12T22:28:49.670Z,100
2023-12-12T22:33:49.691Z,100
2023-12-12T22:38:50.429Z,100
2023-12-12T22:43:49.848Z,100
2023-12-12T22:48:50.377Z,100
2023-12-12T22:53:49.646Z,100
2023-12-12T22:58:50.274Z,100
2023-12-12T23:03:49.803Z,100
2023-12-12T23:08:49.645Z,100
2023-12-12T23:13:49.743Z,100
2023-12-12T23:18:49.773Z,100
2023-12-12T23:23:50.006Z,100
2023-12-12T23:28:50.435Z,100
2023-12-12T23:33:50.029Z,100
2023-12-12T23:38:50.016Z,100
2023-12-12T23:43:49.710Z,100
2023-12-12T23:48:49.644Z,100
2023-12-12T23:53:56.744Z,100
2023-12-12T23:58:49.872Z,100
